Track Кладиенко Олег

Time Latitude Longitude Accuracy (66% radius in meters) Altitude (meters) Speed (km/hour) Bearing (degrees) Battery (%) GPS flag
09:24:31 60.405200 30.332328 0 0 0 0 1 delete
09:24:30 60.405220 30.332357 0 0 0 0 1 delete
09:24:29 60.405248 30.332357 0 0 0 0 1 delete
09:24:28 60.405270 30.332325 0 0 0 0 1 delete
09:24:27 60.405290 30.332295 0 0 0 0 1 delete
09:24:26 60.405310 30.332280 0 0 0 0 1 delete
09:24:25 60.405332 30.332278 0 0 0 0 1 delete
09:24:24 60.405355 30.332280 0 0 0 0 1 delete
09:24:23 60.405385 30.332295 0 0 0 0 1 delete
09:24:22 60.405408 30.332292 0 0 0 0 1 delete
09:24:21 60.405438 30.332293 0 0 0 0 1 delete
09:24:20 60.405473 30.332303 0 0 0 0 1 delete
09:24:19 60.405505 30.332315 0 0 0 0 1 delete
09:24:18 60.405532 30.332330 0 0 0 0 1 delete
09:24:17 60.405552 30.332358 0 0 0 0 1 delete
09:24:16 60.405568 30.332390 0 0 0 0 1 delete
09:24:15 60.405578 30.332418 0 0 0 0 1 delete
09:24:14 60.405587 30.332440 0 0 0 0 1 delete
09:24:13 60.405597 30.332462 0 0 0 0 1 delete
09:24:12 60.405612 30.332485 0 0 0 0 1 delete
09:24:11 60.405630 30.332512 0 0 0 0 1 delete
09:24:10 60.405652 30.332530 0 0 0 0 1 delete
09:24:09 60.405677 30.332537 0 0 0 0 1 delete
09:24:08 60.405698 30.332552 0 0 0 0 1 delete
09:24:07 60.405717 30.332568 0 0 0 0 1 delete
09:24:06 60.405733 30.332575 0 0 0 0 1 delete
09:24:05 60.405742 30.332582 0 0 0 0 1 delete
09:24:04 60.405745 30.332580 0 0 0 0 1 delete
09:24:03 60.405745 30.332580 0 0 0 0 1 delete
09:24:02 60.405745 30.332582 0 0 0 0 1 delete
09:24:01 60.405753 30.332597 0 0 0 0 1 delete
09:24:00 60.405763 30.332620 0 0 0 0 1 delete
09:23:59 60.405775 30.332655 0 0 0 0 1 delete
09:23:58 60.405780 30.332692 0 0 0 0 1 delete
09:23:57 60.405790 30.332727 0 0 0 0 1 delete
09:23:56 60.405800 30.332763 0 0 0 0 1 delete
09:23:55 60.405812 30.332805 0 0 0 0 1 delete
09:23:54 60.405818 30.332842 0 0 0 0 1 delete
09:23:53 60.405822 30.332875 0 0 0 0 1 delete
09:23:52 60.405828 30.332910 0 0 0 0 1 delete
09:23:51 60.405833 30.332935 0 0 0 0 1 delete
09:23:50 60.405835 30.332965 0 0 0 0 1 delete
09:23:49 60.405837 30.332987 0 0 0 0 1 delete
09:23:48 60.405838 30.333005 0 0 0 0 1 delete
09:23:47 60.405838 30.333012 0 0 0 0 1 delete
09:23:46 60.405842 30.333015 0 0 0 0 1 delete
09:23:45 60.405845 30.333022 0 0 0 0 1 delete
09:23:44 60.405850 30.333028 0 0 0 0 1 delete
09:23:43 60.405855 30.333032 0 0 0 0 1 delete
09:23:42 60.405865 30.333032 0 0 0 0 1 delete